createdAt,value
2019-02-14T00:00:06.806Z,10.82
2019-02-14T00:02:40.294Z,10.95
2019-02-14T00:05:16.536Z,10.50
2019-02-14T00:07:45.609Z,11.40
2019-02-14T00:10:16.970Z,11.55
2019-02-14T00:12:48.770Z,11.75
2019-02-14T00:15:20.658Z,12.35
2019-02-14T00:17:52.449Z,13.00
2019-02-14T00:20:24.652Z,12.95
2019-02-14T00:22:56.265Z,12.93
2019-02-14T00:25:28.371Z,11.75
2019-02-14T00:28:00.537Z,10.88
2019-02-14T00:30:31.854Z,11.40
2019-02-14T00:33:03.517Z,12.65
2019-02-14T00:35:35.497Z,12.28
2019-02-14T00:38:07.124Z,12.23
2019-02-14T00:40:38.676Z,12.40
2019-02-14T00:43:10.780Z,14.80
2019-02-14T00:45:42.376Z,12.33
2019-02-14T00:48:13.970Z,13.00
2019-02-14T00:50:45.581Z,13.13
2019-02-14T00:53:17.226Z,13.05
2019-02-14T00:55:48.251Z,12.88
2019-02-14T00:58:19.859Z,12.35
2019-02-14T01:00:51.470Z,12.20
2019-02-14T01:03:23.297Z,12.75
2019-02-14T01:05:54.904Z,12.63
2019-02-14T01:08:26.253Z,12.35
2019-02-14T01:10:58.379Z,12.70
2019-02-14T01:13:30.419Z,12.75
2019-02-14T01:16:02.274Z,13.05
2019-02-14T01:18:33.797Z,12.60
2019-02-14T01:21:05.185Z,12.58
2019-02-14T01:23:37.012Z,12.68
2019-02-14T01:26:08.622Z,11.85
2019-02-14T01:28:40.453Z,13.25
2019-02-14T01:31:12.182Z,12.98
2019-02-14T01:33:43.543Z,14.13
2019-02-14T01:36:16.174Z,13.90
2019-02-14T01:38:48.654Z,13.30
2019-02-14T01:41:20.265Z,13.55
2019-02-14T01:43:51.912Z,14.43
2019-02-14T01:46:23.980Z,14.33
2019-02-14T01:48:56.366Z,14.20
2019-02-14T01:51:27.948Z,13.90
2019-02-14T01:53:59.532Z,12.43
2019-02-14T01:56:31.172Z,13.83
2019-02-14T01:59:03.000Z,14.30
2019-02-14T02:01:35.698Z,14.33
2019-02-14T02:04:07.390Z,14.87
2019-02-14T02:06:39.241Z,15.35
2019-02-14T02:09:11.410Z,12.75
2019-02-14T02:11:43.571Z,12.75
2019-02-14T02:14:15.301Z,14.38
2019-02-14T02:16:46.847Z,13.65
2019-02-14T02:19:18.498Z,13.38
2019-02-14T02:21:50.110Z,13.80
2019-02-14T02:24:21.397Z,13.30
2019-02-14T02:26:54.932Z,12.30
2019-02-14T02:29:26.811Z,11.48
2019-02-14T02:31:59.171Z,11.73
2019-02-14T02:34:30.484Z,11.43
2019-02-14T02:37:01.508Z,11.75
2019-02-14T02:39:33.320Z,11.85
2019-02-14T02:42:05.272Z,12.93
2019-02-14T02:44:37.370Z,12.23
2019-02-14T02:47:09.278Z,12.47
2019-02-14T02:49:40.299Z,12.23
2019-02-14T02:52:11.585Z,12.35
2019-02-14T02:54:43.564Z,11.80
2019-02-14T02:57:15.164Z,11.53
2019-02-14T02:59:46.514Z,11.43
2019-02-14T03:02:18.434Z,11.60
2019-02-14T03:04:49.503Z,11.28
2019-02-14T03:07:21.827Z,11.15
2019-02-14T03:09:54.016Z,10.93
2019-02-14T03:12:26.803Z,10.63
2019-02-14T03:14:58.095Z,11.15
2019-02-14T03:17:29.648Z,11.30
2019-02-14T03:20:01.528Z,10.70
2019-02-14T03:22:33.200Z,11.22
2019-02-14T03:25:05.957Z,11.55
2019-02-14T03:27:37.206Z,10.32
2019-02-14T03:30:08.942Z,11.20
2019-02-14T03:32:41.183Z,11.83
2019-02-14T03:35:12.885Z,12.80
2019-02-14T03:37:44.202Z,11.20
2019-02-14T03:40:15.576Z,10.48
2019-02-14T03:42:47.115Z,10.63
2019-02-14T03:45:19.003Z,10.50
2019-02-14T03:47:50.589Z,10.60
2019-02-14T03:50:21.895Z,11.57
2019-02-14T03:52:53.509Z,10.90
2019-02-14T03:55:25.067Z,11.88
2019-02-14T03:57:56.354Z,13.70
2019-02-14T04:00:28.021Z,11.95
2019-02-14T04:02:59.654Z,13.65
2019-02-14T04:05:31.330Z,11.35
2019-02-14T04:08:03.176Z,12.40
2019-02-14T04:10:34.190Z,11.78
2019-02-14T04:13:05.867Z,11.70
2019-02-14T04:15:37.104Z,12.07
2019-02-14T04:18:09.067Z,11.60
2019-02-14T04:20:40.582Z,12.23
2019-02-14T04:23:12.275Z,11.65
2019-02-14T04:25:43.782Z,11.75
2019-02-14T04:28:15.486Z,11.78
2019-02-14T04:30:47.857Z,12.23
2019-02-14T04:33:19.644Z,12.20
2019-02-14T04:35:51.218Z,11.20
2019-02-14T04:38:22.816Z,11.57
2019-02-14T04:40:54.197Z,12.68
2019-02-14T04:43:25.639Z,12.82
2019-02-14T04:45:57.906Z,11.43
2019-02-14T04:48:29.514Z,9.90
2019-02-14T04:51:01.320Z,10.32
2019-02-14T04:53:32.923Z,11.03
2019-02-14T04:56:04.466Z,9.65
2019-02-14T04:58:36.029Z,10.50
2019-02-14T05:01:07.686Z,11.00
2019-02-14T05:03:39.232Z,10.15
2019-02-14T05:06:11.029Z,9.68
2019-02-14T05:08:42.984Z,9.95
2019-02-14T05:11:14.577Z,9.50
2019-02-14T05:13:45.802Z,9.63
2019-02-14T05:16:17.134Z,9.05
2019-02-14T05:18:48.992Z,8.43
2019-02-14T05:21:20.644Z,9.20
2019-02-14T05:23:52.501Z,8.83
2019-02-14T05:26:24.033Z,9.45
2019-02-14T05:28:55.716Z,8.85
2019-02-14T05:31:28.173Z,8.83
2019-02-14T05:33:59.182Z,8.80
2019-02-14T05:36:30.750Z,8.75
2019-02-14T05:39:02.026Z,8.55
2019-02-14T05:41:34.612Z,8.25
2019-02-14T05:44:06.985Z,8.05
2019-02-14T05:46:39.760Z,9.43
2019-02-14T05:49:11.723Z,9.58
2019-02-14T05:51:44.284Z,8.43
2019-02-14T05:54:15.921Z,8.00
2019-02-14T05:56:48.193Z,8.30
2019-02-14T05:59:19.755Z,7.33
2019-02-14T06:01:51.081Z,7.45
2019-02-14T06:04:22.324Z,7.65
2019-02-14T06:07:00.986Z,7.62
2019-02-14T06:09:26.883Z,7.97
2019-02-14T06:11:58.447Z,8.08
2019-02-14T06:14:30.070Z,8.55
2019-02-14T06:17:01.947Z,8.83
2019-02-14T06:19:33.478Z,8.08
2019-02-14T06:22:05.287Z,8.03
2019-02-14T06:24:36.288Z,8.20
2019-02-14T06:27:08.352Z,8.53
2019-02-14T06:29:40.612Z,8.03
2019-02-14T06:32:12.813Z,8.88
2019-02-14T06:34:43.829Z,8.13
2019-02-14T06:37:15.155Z,8.23
2019-02-14T06:39:46.165Z,8.35
2019-02-14T06:42:18.575Z,8.55
2019-02-14T06:44:49.946Z,7.70
2019-02-14T06:47:21.280Z,8.58
2019-02-14T06:49:52.633Z,9.08
2019-02-14T06:52:24.579Z,8.20
2019-02-14T06:54:56.518Z,7.75
2019-02-14T06:57:27.825Z,7.45
2019-02-14T06:59:59.432Z,7.78
2019-02-14T07:02:30.978Z,8.05
2019-02-14T07:05:02.280Z,7.08
2019-02-14T07:07:33.931Z,8.43
2019-02-14T07:10:05.702Z,8.20
2019-02-14T07:12:37.440Z,8.28
2019-02-14T07:15:10.893Z,7.60
2019-02-14T07:17:42.690Z,7.83
2019-02-14T07:20:15.166Z,7.40
2019-02-14T07:22:46.708Z,7.78
2019-02-14T07:25:18.254Z,7.75
2019-02-14T07:27:51.686Z,8.28
2019-02-14T07:30:23.121Z,7.45
2019-02-14T07:32:54.684Z,7.30
2019-02-14T07:35:26.615Z,6.50
2019-02-14T07:37:58.455Z,6.35
2019-02-14T07:40:29.816Z,6.55
2019-02-14T07:43:01.238Z,6.22
2019-02-14T07:45:32.847Z,5.47
2019-02-14T07:48:05.815Z,5.45
2019-02-14T07:50:37.360Z,5.37
2019-02-14T07:53:08.845Z,5.67
2019-02-14T07:55:40.508Z,5.93
2019-02-14T07:58:12.028Z,7.30
2019-02-14T08:00:43.934Z,7.43
2019-02-14T08:03:15.518Z,6.70
2019-02-14T08:05:46.797Z,6.17
2019-02-14T08:08:18.435Z,5.80
2019-02-14T08:10:49.822Z,7.73
2019-02-14T08:13:21.119Z,6.30
2019-02-14T08:15:52.655Z,6.70
2019-02-14T08:18:23.680Z,6.97
2019-02-14T08:20:54.966Z,6.60
2019-02-14T08:23:25.967Z,6.20
2019-02-14T08:25:58.049Z,6.10
2019-02-14T08:28:29.342Z,6.00
2019-02-14T08:31:00.997Z,6.70
2019-02-14T08:33:32.331Z,6.03
2019-02-14T08:36:03.892Z,6.90
2019-02-14T08:38:35.550Z,6.47
2019-02-14T08:41:06.878Z,6.33
2019-02-14T08:43:38.763Z,5.73
2019-02-14T08:46:10.270Z,6.27
2019-02-14T08:48:41.373Z,7.00
2019-02-14T08:51:12.695Z,5.53
2019-02-14T08:53:43.724Z,6.27
2019-02-14T08:56:15.325Z,6.43
2019-02-14T08:58:46.907Z,5.53
2019-02-14T09:01:18.881Z,7.07
2019-02-14T09:03:49.879Z,7.13
2019-02-14T09:06:22.129Z,7.10
2019-02-14T09:08:53.771Z,8.37
2019-02-14T09:11:25.445Z,10.33
2019-02-14T09:13:56.786Z,16.13
2019-02-14T09:16:28.632Z,11.67
2019-02-14T09:19:00.618Z,8.47
2019-02-14T09:21:31.949Z,12.87
2019-02-14T09:24:03.286Z,9.97
2019-02-14T09:26:34.308Z,8.80
2019-02-14T09:29:05.319Z,7.93
2019-02-14T09:31:37.471Z,7.60
2019-02-14T09:34:09.088Z,7.23
2019-02-14T09:36:40.722Z,5.43
2019-02-14T09:39:12.061Z,6.27
2019-02-14T09:41:43.221Z,6.20
2019-02-14T09:44:14.544Z,6.17
2019-02-14T09:46:46.638Z,5.30
2019-02-14T09:49:17.890Z,5.53
2019-02-14T09:51:49.246Z,5.00
2019-02-14T09:54:20.892Z,4.90
2019-02-14T09:56:52.561Z,4.30
2019-02-14T09:59:24.639Z,5.13
2019-02-14T10:01:55.957Z,4.57
2019-02-14T10:04:27.000Z,4.57
2019-02-14T10:06:58.340Z,3.53
2019-02-14T10:09:30.237Z,4.10
2019-02-14T10:12:01.825Z,3.37
2019-02-14T10:14:33.627Z,3.50
2019-02-14T10:17:04.984Z,3.13
2019-02-14T10:19:36.794Z,2.87
2019-02-14T10:22:08.828Z,2.70
2019-02-14T10:24:40.650Z,3.07
2019-02-14T10:27:12.302Z,2.63
2019-02-14T10:29:43.960Z,2.57
2019-02-14T10:32:15.921Z,2.80
2019-02-14T10:34:48.083Z,2.40
2019-02-14T10:37:19.826Z,1.77
2019-02-14T10:39:50.834Z,1.70
2019-02-14T10:42:22.864Z,2.30
2019-02-14T10:44:54.419Z,2.60
2019-02-14T10:47:25.957Z,2.70
2019-02-14T10:49:57.480Z,2.97
2019-02-14T10:52:29.558Z,4.27
2019-02-14T10:55:01.180Z,4.03
2019-02-14T10:57:32.468Z,2.50
2019-02-14T11:00:05.532Z,2.70
2019-02-14T11:02:37.952Z,2.37
2019-02-14T11:05:09.549Z,2.67
2019-02-14T11:07:41.407Z,3.20
2019-02-14T11:10:13.164Z,3.17
2019-02-14T11:12:44.994Z,2.67
2019-02-14T11:15:18.489Z,2.67
2019-02-14T11:17:50.217Z,2.50
2019-02-14T11:20:22.629Z,3.30
2019-02-14T11:22:54.253Z,2.97
2019-02-14T11:25:29.615Z,4.00
2019-02-14T11:28:00.925Z,3.07
2019-02-14T11:30:32.553Z,3.10
2019-02-14T11:33:04.568Z,2.27
2019-02-14T11:35:36.156Z,2.70
2019-02-14T11:38:07.732Z,2.60
2019-02-14T11:40:39.372Z,2.53
2019-02-14T11:43:10.717Z,2.60
2019-02-14T11:45:42.284Z,2.87
2019-02-14T11:48:13.289Z,3.50
2019-02-14T11:50:45.888Z,3.50
2019-02-14T11:53:17.746Z,4.23
2019-02-14T11:55:49.433Z,4.13
2019-02-14T11:58:21.561Z,4.07
2019-02-14T12:00:53.094Z,4.00
2019-02-14T12:03:24.108Z,4.40
2019-02-14T12:05:55.641Z,4.30
2019-02-14T12:08:26.897Z,4.70
2019-02-14T12:10:58.867Z,4.03
2019-02-14T12:13:30.504Z,4.27
2019-02-14T12:16:01.611Z,4.23
2019-02-14T12:18:33.323Z,4.13
2019-02-14T12:21:04.345Z,4.23
2019-02-14T12:23:35.993Z,4.60
2019-02-14T12:26:07.830Z,5.30
2019-02-14T12:28:39.101Z,5.07
2019-02-14T12:31:10.962Z,4.00
2019-02-14T12:33:42.439Z,3.87
2019-02-14T12:36:14.078Z,3.20
2019-02-14T12:38:45.111Z,3.00
2019-02-14T12:41:16.726Z,3.30
2019-02-14T12:43:48.028Z,3.80
2019-02-14T12:46:19.555Z,3.40
2019-02-14T12:48:50.874Z,3.23
2019-02-14T12:51:22.870Z,2.70
2019-02-14T12:53:54.219Z,3.03
2019-02-14T12:56:26.180Z,2.40
2019-02-14T12:58:57.538Z,2.77
2019-02-14T13:01:29.181Z,2.60
2019-02-14T13:04:00.838Z,1.60
2019-02-14T13:06:32.794Z,2.30
2019-02-14T13:09:05.561Z,2.00
2019-02-14T13:11:37.402Z,2.20
2019-02-14T13:14:08.741Z,1.57
2019-02-14T13:16:40.371Z,1.40
2019-02-14T13:19:11.991Z,1.30
2019-02-14T13:21:43.348Z,1.70
2019-02-14T13:24:14.978Z,1.60
2019-02-14T13:26:46.298Z,1.10
2019-02-14T13:29:17.562Z,1.43
2019-02-14T13:31:48.913Z,1.10
2019-02-14T13:34:20.484Z,1.37
2019-02-14T13:37:01.071Z,1.23
2019-02-14T13:39:29.515Z,1.60
2019-02-14T13:41:57.768Z,1.63
2019-02-14T13:44:28.842Z,1.43
2019-02-14T13:47:00.421Z,1.30
2019-02-14T13:49:32.747Z,1.20
2019-02-14T13:52:04.941Z,1.40
2019-02-14T13:54:36.016Z,1.63
2019-02-14T13:57:07.816Z,1.33
2019-02-14T13:59:39.508Z,1.43
2019-02-14T14:02:10.799Z,1.70
2019-02-14T14:04:42.360Z,1.70
2019-02-14T14:07:14.563Z,1.40
2019-02-14T14:09:46.316Z,1.83
2019-02-14T14:12:17.862Z,1.60
2019-02-14T14:14:49.540Z,1.60
2019-02-14T14:17:21.189Z,1.40
2019-02-14T14:19:52.967Z,0.97
2019-02-14T14:22:24.423Z,1.00
2019-02-14T14:24:57.748Z,1.97
2019-02-14T14:27:29.350Z,1.07
2019-02-14T14:30:01.925Z,1.70
2019-02-14T14:32:34.381Z,1.13
2019-02-14T14:35:06.456Z,0.90
2019-02-14T14:37:38.200Z,1.10
2019-02-14T14:40:10.880Z,1.10
2019-02-14T14:43:04.272Z,1.20
2019-02-14T14:45:58.768Z,0.80
2019-02-14T14:48:36.029Z,1.10
2019-02-14T14:51:08.487Z,0.97
2019-02-14T14:53:41.139Z,1.33
2019-02-14T14:56:12.618Z,1.40
2019-02-14T14:58:45.568Z,1.40
2019-02-14T15:01:17.470Z,1.40
2019-02-14T15:03:49.018Z,1.80
2019-02-14T15:06:20.698Z,1.70
2019-02-14T15:08:52.344Z,1.87
2019-02-14T15:11:23.907Z,1.80
2019-02-14T15:13:55.713Z,2.47
2019-02-14T15:16:27.073Z,3.37
2019-02-14T15:18:58.078Z,4.40
2019-02-14T15:21:29.677Z,4.97
2019-02-14T15:24:01.332Z,6.30
2019-02-14T15:26:33.002Z,5.43
2019-02-14T15:29:04.334Z,4.23
2019-02-14T15:31:35.368Z,5.00
2019-02-14T15:34:07.497Z,4.90
2019-02-14T15:36:39.407Z,7.20
2019-02-14T15:39:11.537Z,7.97
2019-02-14T15:41:42.785Z,8.33
2019-02-14T15:44:14.057Z,7.73
2019-02-14T15:46:45.686Z,7.30
2019-02-14T15:49:17.296Z,5.70
2019-02-14T15:51:48.785Z,5.17
2019-02-14T15:54:20.122Z,7.63
2019-02-14T15:56:53.162Z,10.67
2019-02-14T15:59:24.188Z,8.50
2019-02-14T16:01:55.508Z,9.17
2019-02-14T16:04:28.802Z,9.10
2019-02-14T16:07:00.162Z,11.13
2019-02-14T16:09:31.481Z,12.00
2019-02-14T16:12:02.787Z,22.33
2019-02-14T16:14:34.416Z,13.90
2019-02-14T16:17:07.089Z,8.30
2019-02-14T16:19:38.975Z,7.47
2019-02-14T16:22:10.321Z,8.33
2019-02-14T16:24:42.984Z,7.17
2019-02-14T16:27:14.212Z,6.90
2019-02-14T16:29:47.244Z,6.30
2019-02-14T16:32:19.874Z,6.70
2019-02-14T16:34:51.768Z,7.43
2019-02-14T16:37:23.434Z,8.30
2019-02-14T16:39:56.852Z,8.90
2019-02-14T16:42:28.072Z,4.80
2019-02-14T16:44:59.083Z,4.90
2019-02-14T16:47:30.449Z,6.10
2019-02-14T16:50:02.214Z,8.30
2019-02-14T16:52:33.868Z,9.90
2019-02-14T16:55:05.716Z,12.87
2019-02-14T16:57:37.045Z,14.77
2019-02-14T17:00:11.561Z,18.57
2019-02-14T17:02:43.239Z,13.97
2019-02-14T17:05:14.876Z,13.97
2019-02-14T17:07:46.143Z,11.67
2019-02-14T17:10:17.443Z,10.68
2019-02-14T17:12:48.459Z,9.47
2019-02-14T17:15:19.766Z,9.40
2019-02-14T17:17:50.797Z,9.33
2019-02-14T17:20:21.811Z,9.43
2019-02-14T17:22:53.387Z,8.45
2019-02-14T17:25:25.296Z,8.13
2019-02-14T17:27:56.892Z,6.92
2019-02-14T17:30:28.279Z,6.67
2019-02-14T17:33:00.410Z,6.83
2019-02-14T17:35:31.752Z,6.15
2019-02-14T17:38:02.759Z,5.87
2019-02-14T17:40:34.120Z,4.60
2019-02-14T17:43:05.415Z,4.95
2019-02-14T17:45:36.729Z,5.53
2019-02-14T17:48:08.124Z,5.78
2019-02-14T17:50:39.769Z,6.47
2019-02-14T17:53:11.763Z,5.00
2019-02-14T17:55:43.445Z,5.35
2019-02-14T17:58:14.833Z,5.50
2019-02-14T18:00:46.490Z,4.60
2019-02-14T18:03:18.963Z,5.30
2019-02-14T18:05:50.270Z,6.53
2019-02-14T18:08:21.620Z,8.13
2019-02-14T18:10:55.168Z,9.65
2019-02-14T18:13:26.106Z,9.25
2019-02-14T18:15:57.466Z,7.42
2019-02-14T18:18:28.523Z,4.37
2019-02-14T18:21:00.128Z,3.83
2019-02-14T18:23:31.601Z,3.00
2019-02-14T18:26:03.204Z,3.98
2019-02-14T18:28:35.067Z,2.83
2019-02-14T18:31:06.646Z,3.27
2019-02-14T18:33:38.015Z,2.70
2019-02-14T18:36:09.960Z,2.02
2019-02-14T18:38:41.612Z,2.30
2019-02-14T18:41:13.528Z,2.10
2019-02-14T18:43:44.827Z,3.50
2019-02-14T18:46:16.780Z,6.25
2019-02-14T18:48:48.102Z,4.83
2019-02-14T18:51:19.370Z,3.00
2019-02-14T18:53:51.008Z,2.55
2019-02-14T18:56:22.799Z,2.92
2019-02-14T18:58:54.189Z,2.20
2019-02-14T19:01:26.336Z,2.70
2019-02-14T19:03:57.962Z,2.23
2019-02-14T19:06:28.969Z,4.22
2019-02-14T19:09:00.318Z,5.62
2019-02-14T19:11:31.984Z,6.80
2019-02-14T19:14:04.474Z,6.35
2019-02-14T19:16:35.817Z,6.78
2019-02-14T19:19:07.286Z,6.12
2019-02-14T19:21:38.926Z,11.80
2019-02-14T19:24:11.477Z,6.97
2019-02-14T19:26:43.118Z,11.10
2019-02-14T19:29:15.008Z,6.65
2019-02-14T19:31:46.526Z,5.35
2019-02-14T19:34:17.918Z,4.55
2019-02-14T19:36:49.247Z,4.47
2019-02-14T19:39:20.332Z,5.30
2019-02-14T19:41:51.343Z,4.50
2019-02-14T19:44:22.842Z,4.08
2019-02-14T19:46:55.060Z,4.05
2019-02-14T19:49:26.396Z,4.25
2019-02-14T19:51:58.023Z,5.28
2019-02-14T19:54:29.413Z,4.10
2019-02-14T19:57:01.290Z,5.03
2019-02-14T19:59:32.930Z,4.72
2019-02-14T20:02:04.884Z,4.12
2019-02-14T20:04:36.704Z,4.35
2019-02-14T20:07:08.265Z,5.58
2019-02-14T20:09:41.581Z,10.18
2019-02-14T20:12:13.022Z,12.53
2019-02-14T20:14:45.643Z,15.70
2019-02-14T20:17:17.379Z,14.53
2019-02-14T20:19:49.498Z,18.37
2019-02-14T20:22:20.736Z,19.90
2019-02-14T20:24:51.799Z,24.52
2019-02-14T20:27:23.141Z,20.20
2019-02-14T20:29:54.198Z,17.75
2019-02-14T20:32:25.902Z,18.35
2019-02-14T20:34:57.715Z,15.68
2019-02-14T20:37:29.387Z,12.47
2019-02-14T20:40:01.032Z,12.00
2019-02-14T20:42:32.607Z,10.43
2019-02-14T20:45:04.241Z,9.88
2019-02-14T20:47:37.210Z,7.92
2019-02-14T20:50:11.240Z,6.92
2019-02-14T20:52:42.899Z,5.67
2019-02-14T20:55:15.735Z,4.85
2019-02-14T20:57:47.501Z,4.97
2019-02-14T21:00:37.016Z,4.47
2019-02-14T21:03:08.044Z,3.42
2019-02-14T21:05:40.006Z,3.83
2019-02-14T21:08:11.252Z,3.70
2019-02-14T21:10:44.732Z,3.77
2019-02-14T21:13:16.164Z,3.60
2019-02-14T21:15:47.462Z,3.87
2019-02-14T21:18:19.496Z,5.70
2019-02-14T21:20:51.035Z,6.87
2019-02-14T21:23:22.699Z,14.03
2019-02-14T21:25:54.051Z,12.68
2019-02-14T21:28:25.554Z,4.90
2019-02-14T21:30:56.836Z,4.08
2019-02-14T21:33:29.248Z,3.52
2019-02-14T21:36:01.271Z,2.75
2019-02-14T21:38:33.899Z,3.20
2019-02-14T21:41:05.231Z,2.67
2019-02-14T21:43:37.406Z,1.62
2019-02-14T21:46:08.778Z,1.87
2019-02-14T21:48:40.683Z,1.75
2019-02-14T21:51:11.985Z,1.98
2019-02-14T21:53:43.839Z,2.02
2019-02-14T21:56:15.160Z,1.77
2019-02-14T21:58:47.444Z,1.75
2019-02-14T22:01:19.585Z,1.50
2019-02-14T22:03:51.215Z,1.90
2019-02-14T22:06:22.907Z,2.70
2019-02-14T22:08:54.712Z,1.52
2019-02-14T22:11:26.108Z,1.30
2019-02-14T22:13:57.333Z,1.40
2019-02-14T22:16:29.442Z,1.40
2019-02-14T22:19:00.833Z,1.27
2019-02-14T22:21:32.174Z,1.62
2019-02-14T22:24:03.450Z,1.60
2019-02-14T22:26:35.497Z,1.40
2019-02-14T22:29:07.082Z,1.75
2019-02-14T22:31:39.049Z,1.57
2019-02-14T22:34:11.065Z,1.50
2019-02-14T22:36:42.625Z,1.57
2019-02-14T22:39:13.650Z,1.52
2019-02-14T22:41:45.005Z,1.70
2019-02-14T22:44:16.246Z,1.70
2019-02-14T22:46:48.374Z,1.67
2019-02-14T22:49:19.668Z,1.70
2019-02-14T22:51:51.237Z,1.40
2019-02-14T22:54:22.501Z,1.47
2019-02-14T22:56:53.514Z,1.82
2019-02-14T22:59:25.385Z,1.87
2019-02-14T23:01:56.776Z,1.47
2019-02-14T23:04:28.073Z,1.70
2019-02-14T23:06:59.912Z,1.50
2019-02-14T23:09:31.179Z,1.22
2019-02-14T23:12:02.257Z,1.60
2019-02-14T23:14:33.993Z,1.47
2019-02-14T23:17:06.054Z,1.27
2019-02-14T23:19:37.589Z,1.42
2019-02-14T23:22:08.863Z,1.60
2019-02-14T23:24:40.820Z,1.98
2019-02-14T23:27:12.715Z,1.52
2019-02-14T23:29:44.866Z,1.72
2019-02-14T23:32:16.907Z,1.42
2019-02-14T23:34:48.538Z,1.25
2019-02-14T23:37:19.815Z,1.37
2019-02-14T23:39:51.117Z,1.42
2019-02-14T23:42:22.813Z,1.10
2019-02-14T23:44:54.637Z,1.30
2019-02-14T23:47:26.632Z,1.20
2019-02-14T23:49:57.867Z,1.60
2019-02-14T23:52:29.199Z,1.30
2019-02-14T23:55:01.085Z,1.45
2019-02-14T23:57:33.364Z,1.80
